METAR Data
IDs: Format: Raw Decoded Include TAF

Data at: 2038 UTC 19 May 2019

KCCY 192035Z AUTO 31015KT 10SM BKN022 OVC027 11/07 A2973 RMK AO2
KCCY 192015Z AUTO 31013KT 10SM OVC020 11/07 A2972 RMK AO2
KCCY 191955Z AUTO 32013KT 10SM 11/08 A2971 RMK AO2
KCCY 191935Z AUTO 33013G18KT 10SM 11/08 A2969 RMK AO2
KCCY 191915Z AUTO 33014KT 10SM 11/08 A2969 RMK AO2
KCCY 191855Z AUTO 35015KT 10SM 11/08 A2967 RMK AO2
KCCY 191835Z AUTO 32014KT 10SM 11/08 A2967 RMK AO2
KCCY 191815Z AUTO 34016KT 10SM 11/08 A2966 RMK AO2
KCCY 191755Z AUTO 32014G19KT 10SM 11/08 A2966 RMK AO2
KCCY 191735Z AUTO 32014G20KT 10SM OVC017 10/07 A2965 RMK AO2
KCCY 191715Z AUTO 31013G21KT 10SM 11/08 A2965 RMK AO2
KCCY 191655Z AUTO 31013KT 10SM 10/08 A2964 RMK AO2
KCCY 191635Z AUTO 31015G20KT 10SM 10/07 A2963 RMK AO2
KCCY 191615Z AUTO 32016KT 10SM 10/07 A2963 RMK AO2
KCCY 191555Z AUTO 32014G21KT 10SM OVC013 09/07 A2960 RMK AO2
KCCY 191535Z AUTO 32014G21KT 10SM OVC011 09/08 A2959 RMK AO2
KCCY 191515Z AUTO 32014G20KT 10SM 09/08 A2958 RMK AO2
KCCY 191455Z AUTO 31016KT 10SM OVC010 09/08 A2957 RMK AO2
KCCY 191435Z AUTO 31016G22KT 10SM OVC009 09/08 A2956 RMK AO2
KCCY 191415Z AUTO 31015G21KT 10SM BKN009 OVC013 09/08 A2956 RMK AO2
KCCY 191355Z AUTO 31017G22KT 10SM BKN008 OVC011 09/07 A2954 RMK AO2
KCCY 191335Z AUTO 32015KT 8SM OVC007 09/08 A2954 RMK AO2
KCCY 191315Z AUTO 31014KT 10SM OVC007 08/08 A2954 RMK AO2
KCCY 191255Z AUTO 33013KT 10SM OVC008 08/08 A2952 RMK AO2
KCCY 191235Z AUTO 32014KT 10SM BKN007 OVC018 08/08 A2952 RMK AO2
KCCY 191215Z AUTO 34015KT 10SM BKN007 OVC019 08/08 A2950 RMK AO2
KCCY 191155Z AUTO 35016KT 4SM BR BKN006 BKN019 08/08 A2950 RMK AO2 P0001
KCCY 191135Z AUTO 34014G20KT 1SM BR OVC005 08/08 A2949 RMK AO2
KCCY 191115Z AUTO 34016KT 3/4SM BR OVC005 08/08 A2948 RMK AO2
KCCY 191055Z AUTO 34016KT 2SM BR OVC004 09/08 A2948 RMK AO2 P0001
KCCY 191035Z AUTO 34014G20KT 2SM BR OVC005 09/09 A2948 RMK AO2
KCCY 191015Z AUTO 35015KT 2SM BR OVC005 09/09 A2947 RMK AO2
KCCY 190955Z AUTO 01013G20KT 1 3/4SM BR OVC005 09/09 A2947 RMK AO2 P0002
KCCY 190935Z AUTO 35012KT 3SM -RA OVC005 10/09 A2948 RMK AO2
KCCY 190915Z AUTO 35010G17KT 2SM BR OVC005 10/10 A2948 RMK AO2
KCCY 190855Z AUTO 04015G21KT 9SM OVC006 10/09 A2947 RMK AO2 P0001
KCCY 190835Z AUTO 05015G20KT 10SM OVC005 10/10 A2948 RMK AO2
KCCY 190815Z AUTO 05017KT 4SM BR BKN006 OVC015 10/09 A2947 RMK AO2
KCCY 190755Z AUTO 05015KT 3SM BR BKN008 OVC016 10/09 A2949 RMK AO2 P0006
KCCY 190735Z AUTO 04017G22KT 3SM -RA SCT006 BKN009 OVC015 10/10 A2950 RMK AO2
KCCY 190715Z AUTO 05014G23KT 2 1/2SM RA BKN006 OVC012 10/10 A2951 RMK AO2
KCCY 190655Z AUTO 03012KT 3SM -RA BKN006 OVC012 11/10 A2953 RMK AO2 P0033
KCCY 190635Z AUTO 04012KT 4SM RA FEW004 BKN009 OVC023 11/10 A2955 RMK AO2
KCCY 190615Z AUTO 05016KT 2SM +RA BKN004 BKN007 OVC024 11/11 A2955 RMK AO2
KCCY 190555Z AUTO 04011G18KT 1 1/4SM +RA OVC004 12/11 A2955 RMK AO2 P0053
KCCY 190535Z AUTO 05012G18KT 1 1/2SM +RA OVC004 12/12 A2956 RMK AO2
KCCY 190515Z AUTO 05015KT 2 1/2SM +RA OVC005 12/12 A2956 RMK AO2
KCCY 190455Z AUTO 03011G17KT 9SM -DZ OVC005 13/13 A2956 RMK AO2 P0002
KCCY 190435Z AUTO 04015KT 10SM OVC005 14/13 A2958 RMK AO2
KCCY 190415Z AUTO 06014G21KT 5SM -RA OVC005 15/15 A2959 RMK AO2
KCCY 190355Z AUTO 06012KT 6SM -RA BKN006 OVC011 16/15 A2960 RMK AO2 P0003
KCCY 190335Z AUTO 06010G15KT 6SM -RA SCT007 BKN022 OVC100 16/16 A2960 RMK AO2
KCCY 190315Z AUTO 04006KT 7SM -RA FEW025 SCT050 BKN100 16/16 A2961 RMK AO2
KCCY 190255Z AUTO 01008KT 7SM -RA FEW039 SCT070 BKN080 16/16 A2961 RMK AO2 P0007
KCCY 190235Z AUTO 34005KT 6SM -RA FEW037 SCT055 BKN065 17/16 A2963 RMK AO2
KCCY 190215Z AUTO 29005KT 6SM RA SCT034 BKN044 OVC065 17/16 A2963 RMK AO2
KCCY 190155Z AUTO 24007KT 5SM RA BKN034 BKN044 OVC080 17/16 A2965 RMK AO2 P0016
KCCY 190135Z AUTO 22008KT 6SM RA SCT035 BKN055 OVC080 17/17 A2966 RMK AO2
KCCY 190115Z AUTO 20010G16KT 5SM RA SCT035 BKN045 OVC070 18/17 A2965 RMK AO2
KCCY 190055Z AUTO 21011G18KT 5SM RA FEW023 BKN032 OVC047 18/17 A2964 RMK AO2 P0028
KCCY 190035Z AUTO 23015KT 3SM -RA FEW004 BKN030 OVC036 19/17 A2962 RMK AO2
KCCY 190015Z AUTO 21013G20KT 3SM -RA FEW027 SCT032 BKN038 20/18 A2960 RMK AO2
KCCY 182355Z AUTO 19011G16KT 140V220 3SM -RA SCT035 BKN046 OVC055 19/17 A2959 RMK AO2 P0005
KCCY 182335Z AUTO 10010G16KT 7SM -RA BKN049 BKN060 BKN095 19/17 A2960 RMK AO2
KCCY 182315Z AUTO 05011KT 10SM SCT050 BKN060 BKN090 20/18 A2959 RMK AO2
KCCY 182255Z AUTO 07007KT 10SM SCT055 20/18 A2960 RMK AO2
KCCY 182235Z AUTO 10007KT 10SM FEW050 SCT060 SCT070 21/18 A2959 RMK AO2
KCCY 182215Z AUTO 08011G16KT 10SM SCT050 BKN060 BKN075 20/18 A2960 RMK AO2
KCCY 182155Z AUTO 13011G18KT 8SM FEW004 SCT034 BKN050 20/17 A2960 RMK AO2 P0011
KCCY 182135Z AUTO 12016G30KT 1SM +RA SCT004 BKN033 OVC070 20/18 A2959 RMK AO2
KCCY 182115Z AUTO 14015G20KT 10SM FEW032 SCT041 SCT048 23/18 A2959 RMK AO2
KCCY 182055Z AUTO 17014KT 10SM FEW040 SCT048 SCT060 25/19 A2959 RMK AO2
KCCY 182035Z AUTO 16011KT 10SM FEW034 SCT041 BKN055 25/19 A2960 RMK AO2
KCCY 182015Z AUTO 15006G12KT 10SM SCT036 BKN041 BKN049 25/18 A2961 RMK AO2
KCCY 181955Z AUTO 16013KT 10SM SCT037 BKN042 BKN050 25/18 A2961 RMK AO2
KCCY 181935Z AUTO 12009KT 10SM BKN036 BKN042 BKN048 24/17 A2960 RMK AO2
KCCY 181915Z AUTO 16011KT 10SM SCT038 BKN047 24/17 A2962 RMK AO2
KCCY 181855Z AUTO 14009KT 110V170 10SM FEW032 SCT039 24/17 A2962 RMK AO2
KCCY 181835Z AUTO 13008G13KT 080V150 10SM FEW024 SCT029 23/18 A2961 RMK AO2
KCCY 181815Z AUTO 12007KT 10SM BKN022 BKN026 22/17 A2962 RMK AO2
KCCY 181755Z AUTO VRB05G10KT 10SM FEW023 21/17 A2963 RMK AO2
KCCY 181735Z AUTO VRB03KT 10SM FEW018 SCT025 21/16 A2964 RMK AO2
KCCY 181715Z AUTO VRB06G11KT 10SM FEW017 20/16 A2963 RMK AO2
KCCY 181655Z AUTO 15016KT 10SM CLR 19/16 A2961 RMK AO2
KCCY 181635Z AUTO 14016G22KT 10SM FEW014 18/15 A2960 RMK AO2
KCCY 181615Z AUTO 15019KT 10SM CLR 18/15 A2960 RMK AO2
KCCY 181555Z AUTO 13015G23KT 10SM CLR 16/14 A2954 RMK AO2
KCCY 181535Z AUTO 13016KT 10SM CLR 16/13 A2959 RMK AO2
KCCY 181515Z AUTO 14015G22KT 10SM CLR 15/12 A2962 RMK AO2
KCCY 181455Z AUTO 13013G18KT 10SM CLR 15/12 A2963 RMK AO2
KCCY 181435Z AUTO 14013KT 10SM CLR 13/11 A2965 RMK AO2
KCCY 181415Z AUTO 14011G16KT 9SM CLR 13/10 A2967 RMK AO2
KCCY 181355Z AUTO 14012G19KT 10SM FEW090 13/10 A2968 RMK AO2
KCCY 181335Z AUTO 14010G16KT 10SM SCT090 12/09 A2968 RMK AO2
KCCY 181315Z AUTO 13014G19KT 10SM FEW090 FEW120 12/09 A2968 RMK AO2
KCCY 181255Z AUTO 13012G17KT 10SM CLR 11/08 A2968 RMK AO2
KCCY 181235Z AUTO 13011G18KT 10SM CLR 11/08 A2969 RMK AO2
KCCY 181215Z AUTO 13012KT 10SM SCT060 BKN075 BKN090 10/07 A2970 RMK AO2
KCCY 181155Z AUTO 14015KT 10SM BKN060 BKN090 BKN140 10/07 A2970 RMK AO2
KCCY 181135Z AUTO 13013G21KT 10SM SCT039 SCT048 BKN080 10/07 A2970 RMK AO2
KCCY 181115Z AUTO 12016G22KT 10SM BKN040 BKN046 OVC060 10/07 A2970 RMK AO2
KCCY 181055Z AUTO 12016G22KT 10SM FEW044 OVC060 10/07 A2969 RMK AO2
KCCY 181035Z AUTO 12015G22KT 10SM OVC060 10/07 A2970 RMK AO2
KCCY 181015Z AUTO 12016KT 10SM BKN055 OVC065 09/07 A2970 RMK AO2
KCCY 180955Z AUTO 12016KT 10SM SCT055 BKN065 BKN150 09/06 A2972 RMK AO2
KCCY 180935Z AUTO 11017KT 10SM FEW060 SCT150 BKN180 09/06 A2972 RMK AO2
KCCY 180915Z AUTO 12019G25KT 10SM SCT055 BKN065 BKN150 09/06 A2972 RMK AO2
KCCY 180855Z AUTO 11017KT 10SM SCT055 BKN130 BKN160 10/07 A2973 RMK AO2